Have a Safe July 4th! 

Flight Track Log - Related Links

Times and Time Zones

All times are in EDT time to prevent confusion due to time zone crossing. See the ASQ4976 flight status page for this flight to view local times or setup timezone preferences in your user account.

Time Position Orientation Groundspeed Altitude Reporting Facility
EDT Latitude Longitude Course Direction KTS MPH feet Rate Location/Type
Fri 01:06:44 PM 42.7214 -73.8050 177° South 167 192 1,200  Level Boston Center
Fri 01:07:45 PM 42.6653 -73.8011 177° South 213 245 3,000 1,714 Climbing Boston Center
Fri 01:08:15 PM 42.6442 -73.8231 217° Southwest 253 291 3,800 2,267 Climbing Boston Center
Fri 01:09:15 PM 42.6367 -73.9189 264° West 282 325 6,400 2,550 Climbing Boston Center
Fri 01:10:15 PM 42.6186 -74.0172 256° West 276 318 8,900 2,100 Climbing Boston Center
Fri 01:11:15 PM 42.5964 -74.1156 253° West 271 312 10,600 1,800 Climbing Boston Center
Fri 01:12:15 PM 42.5761 -74.2219 256° West 309 356 12,500 2,200 Climbing Boston Center
Fri 01:13:15 PM 42.5103 -74.3047 223° Southwest 317 365 15,000 2,150 Climbing Boston Center
Fri 01:14:15 PM 42.4317 -74.2572 156° South 400 460 16,800 1,950 Climbing Boston Center
Fri 01:15:15 PM 42.3456 -74.1622 141° Southeast 378 435 18,900 1,750 Climbing Boston Center
Fri 01:16:15 PM 42.2678 -74.0731 140° Southeast 371 427 20,300 1,450 Climbing Boston Center
Fri 01:17:15 PM 42.1639 -74.0394 167° South 365 420 21,800 1,500 Climbing Boston Center
Fri 01:18:15 PM 42.0597 -74.0481 184° South 360 414 23,300 1,500 Climbing Boston Center
Fri 01:19:15 PM 41.9511 -74.0536 182° South 371 427 24,800 1,136 Climbing Boston Center
Fri 01:21:41 PM 41.6778 -74.0678 182° South 411 473 27,200 841 Climbing New York Center
Fri 01:22:42 PM 41.5633 -74.0703 181° South 418 481 27,700 393 Climbing New York Center
Fri 01:23:43 PM 41.4381 -74.0781 183° South 434 499 28,000 151 Climbing New York Center
Fri 01:24:41 PM 41.3086 -74.0883 183° South 450 518 28,000  Level New York Center
Fri 01:25:43 PM 41.1772 -74.0983 183° South 465 535 28,000  Level New York Center
Fri 01:26:41 PM 41.0786 -74.1925 216° Southwest 441 507 28,000  Level New York Center
Fri 01:27:41 PM 41.0042 -74.3181 232° Southwest 429 494 28,000  Level New York Center
Fri 01:28:42 PM 40.9297 -74.4403 231° Southwest 429 494 28,000  Level New York Center
Fri 01:29:43 PM 40.8550 -74.5572 230° Southwest 429 494 28,000  Level New York Center
Fri 01:30:41 PM 40.7825 -74.6764 231° Southwest 424 488 28,000  Level New York Center
Fri 01:31:41 PM 40.7100 -74.7900 230° Southwest 419 482 28,000  Level New York Center
Fri 01:32:42 PM 40.6347 -74.9114 231° Southwest 419 482 28,000  Level New York Center
Fri 01:33:42 PM 40.5597 -75.0297 230° Southwest 424 488 28,000  Level New York Center
Fri 01:34:41 PM 40.4847 -75.1478 230° Southwest 424 488 28,000  Level New York Center
Fri 01:35:41 PM 40.4094 -75.2658 230° Southwest 424 488 28,000  Level New York Center
Fri 01:36:42 PM 40.3336 -75.3889 231° Southwest 431 496 28,000  Level New York Center
Fri 01:37:43 PM 40.2581 -75.5061 230° Southwest 431 496 28,000  Level New York Center
Fri 01:38:41 PM 40.1883 -75.6319 234° Southwest 431 496 28,000  Level New York Center
Fri 01:39:43 PM 40.1225 -75.7631 237° Southwest 431 496 28,000  Level New York Center
Fri 01:40:43 PM 40.0586 -75.8939 237° Southwest 436 502 28,000  Level New York Center
Fri 01:41:41 PM 39.9944 -76.0222 237° Southwest 436 502 28,000  Level New York Center
Fri 01:42:41 PM 39.9181 -76.1464 231° Southwest 436 502 28,000  Level New York Center
Fri 01:43:41 PM 39.8422 -76.2542 228° Southwest 442 509 28,000  Level New York Center
Fri 01:44:42 PM 39.7658 -76.3722 230° Southwest 447 514 28,000  Level New York Center
Fri 01:45:42 PM 39.6892 -76.4903 230° Southwest 447 514 28,000  Level New York Center
Fri 01:45:57 PM 39.6578 -76.5322 226° Southwest 450 518 28,000  Level Washington Center
Fri 01:46:57 PM 39.5819 -76.6525 231° Southwest 450 518 28,000  Level Washington Center
Fri 01:47:58 PM 39.5017 -76.7694 228° Southwest 450 518 28,000  Level Washington Center
Fri 01:48:59 PM 39.4253 -76.8864 230° Southwest 445 512 28,000  Level Washington Center
Fri 01:49:57 PM 39.3469 -77.0033 229° Southwest 440 506 28,000  Level Washington Center
Fri 01:50:57 PM 39.2706 -77.1197 230° Southwest 440 506 28,000  Level Washington Center
Fri 01:51:57 PM 39.1919 -77.2358 229° Southwest 435 501 28,000  Level Washington Center
Fri 01:52:59 PM 39.1153 -77.3519 230° Southwest 435 501 28,000  Level Washington Center
Fri 01:53:59 PM 39.0514 -77.4467 229° Southwest 429 494 28,000  Level Washington Center
Fri 01:54:57 PM 38.9681 -77.5753 230° Southwest 429 494 28,000  Level Washington Center
Fri 01:55:58 PM 38.8803 -77.7008 228° Southwest 429 494 28,000  Level Washington Center
Fri 01:56:59 PM 38.8053 -77.8106 229° Southwest 434 499 28,000  Level Washington Center
Fri 01:57:57 PM 38.7303 -77.9203 229° Southwest 434 499 28,000  Level Washington Center
Fri 01:58:58 PM 38.6531 -78.0347 229° Southwest 428 493 28,000  Level Washington Center
Fri 01:59:59 PM 38.5714 -78.1517 228° Southwest 428 493 28,000  Level Washington Center
Fri 02:00:59 PM 38.4939 -78.2656 229° Southwest 428 493 28,000  Level Washington Center
Fri 02:01:57 PM 38.4142 -78.3794 228° Southwest 428 493 28,000  Level Washington Center
Fri 02:02:57 PM 38.3342 -78.4956 229° Southwest 428 493 28,000  Level Washington Center
Fri 02:03:57 PM 38.2497 -78.6192 229° Southwest 428 493 28,000  Level Washington Center
Fri 02:04:58 PM 38.1697 -78.7322 228° Southwest 428 493 28,000  Level Washington Center
Fri 02:05:59 PM 38.0981 -78.8372 229° Southwest 433 498 28,000  Level Washington Center
Fri 02:06:57 PM 38.0156 -78.9522 228° Southwest 433 498 28,000  Level Washington Center
Fri 02:07:58 PM 37.9353 -79.0672 229° Southwest 439 505 28,000  Level Washington Center
Fri 02:08:59 PM 37.8547 -79.1792 228° Southwest 439 505 28,000  Level Washington Center
Fri 02:09:57 PM 37.7633 -79.3036 227° Southwest 439 505 28,000  Level Washington Center
Fri 02:10:57 PM 37.6806 -79.4150 227° Southwest 439 505 28,000  Level Washington Center
Fri 02:11:58 PM 37.5978 -79.5289 227° Southwest 444 511 28,000  Level Washington Center
Fri 02:12:57 PM 37.5147 -79.6397 227° Southwest 444 511 28,000  Level Washington Center
Fri 02:13:59 PM 37.4333 -79.7583 229° Southwest 449 517 28,000  Level Washington Center
Fri 02:14:59 PM 37.3522 -79.8689 227° Southwest 454 522 28,000  Level Washington Center
Fri 02:16:00 PM 37.2692 -79.9764 226° Southwest 448 516 28,000  Level Washington Center
Fri 02:18:10 PM 37.0975 -80.2058 227° Southwest 426 490 28,000  Level Atlanta Center
Fri 02:19:10 PM 37.0172 -80.3136 227° Southwest 426 490 28,000  Level Atlanta Center
Fri 02:20:10 PM 36.9292 -80.4347 228° Southwest 432 497 28,000  Level Atlanta Center
Fri 02:21:10 PM 36.8469 -80.5447 227° Southwest 432 497 28,000  Level Atlanta Center
Fri 02:22:10 PM 36.7644 -80.6519 226° Southwest 432 497 28,000  Level Atlanta Center
Fri 02:23:10 PM 36.6858 -80.7564 227° Southwest 432 497 28,000  Level Atlanta Center
Fri 02:24:10 PM 36.6072 -80.8606 227° Southwest 432 497 28,000  Level Atlanta Center
Fri 02:25:10 PM 36.5408 -80.9483 227° Southwest 416 479 28,000  Level Atlanta Center
Fri 02:26:10 PM 36.4681 -81.0492 228° Southwest 395 455 28,000  Level Atlanta Center
Fri 02:27:10 PM 36.3914 -81.1475 226° Southwest 390 449 28,000  Level Atlanta Center
Fri 02:28:10 PM 36.3125 -81.2533 227° Southwest 411 473 28,000  Level Atlanta Center
Fri 02:29:10 PM 36.2314 -81.3592 226° Southwest 417 480 28,000  Level Atlanta Center
Fri 02:30:10 PM 36.1481 -81.4675 226° Southwest 417 480 28,000  Level Atlanta Center
Fri 02:31:10 PM 36.0669 -81.5753 227° Southwest 428 493 28,000  Level Atlanta Center
Fri 02:32:10 PM 35.9814 -81.6831 226° Southwest 433 498 28,000  Level Atlanta Center
Fri 02:33:10 PM 35.8981 -81.7931 227° Southwest 438 504 28,000  Level Atlanta Center
Fri 02:34:10 PM 35.8144 -81.8978 225° Southwest 433 498 28,000  Level Atlanta Center
Fri 02:35:10 PM 35.7347 -82.0050 228° Southwest 433 498 28,000  Level Atlanta Center
Fri 02:36:10 PM 35.6469 -82.1144 225° Southwest 422 486 28,000  Level Atlanta Center
Fri 02:37:10 PM 35.5650 -82.2186 226° Southwest 422 486 28,000 -150 Level Atlanta Center
Fri 02:38:10 PM 35.4850 -82.3197 226° Southwest 422 486 27,700 -600 Descending Atlanta Center
Fri 02:39:10 PM 35.4031 -82.4208 225° Southwest 422 486 26,800 -850 Descending Atlanta Center
Fri 02:40:10 PM 35.3228 -82.5192 225° Southwest 415 478 26,000 -750 Descending Atlanta Center
Fri 02:41:10 PM 35.2531 -82.6044 225° Southwest 409 471 25,300 -950 Descending Atlanta Center
Fri 02:42:10 PM 35.1747 -82.7047 226° Southwest 402 463 24,100 -1,600 Descending Atlanta Center
Fri 02:43:10 PM 35.0967 -82.8025 226° Southwest 402 463 22,100 -1,050 Descending Atlanta Center
Fri 02:44:10 PM 35.0222 -82.8950 226° Southwest 402 463 22,000 -50 Descending Atlanta Center
Fri 02:45:10 PM 34.9461 -82.9922 226° Southwest 385 443 22,000  Level Atlanta Center
Fri 02:46:10 PM 34.8653 -83.0742 220° Southwest 374 430 22,000  Level Atlanta Center
Fri 02:47:10 PM 34.7803 -83.1511 217° Southwest 374 430 22,000  Level Atlanta Center
Fri 02:48:10 PM 34.7036 -83.2303 220° Southwest 374 430 22,000  Level Atlanta Center
Fri 02:49:10 PM 34.6228 -83.3144 221° Southwest 380 437 22,000  Level Atlanta Center
Fri 02:50:10 PM 34.5439 -83.3958 220° Southwest 375 432 22,000 -50 Level Atlanta Center
Fri 02:51:10 PM 34.4608 -83.4744 218° Southwest 375 432 21,900 -1,050 Descending Atlanta Center
Fri 02:52:10 PM 34.3922 -83.5453 220° Southwest 375 432 19,900 -2,050 Descending Atlanta Center
Fri 02:53:10 PM 34.3175 -83.6189 219° Southwest 367 422 17,800 -1,950 Descending Atlanta Center
Fri 02:54:10 PM 34.2528 -83.6819 219° Southwest 333 383 16,000 -1,650 Descending Atlanta Center
Fri 02:55:10 PM 34.1925 -83.7425 220° Southwest 297 342 14,500 -1,500 Descending Atlanta Center
Fri 02:56:10 PM 34.1364 -83.7978 219° Southwest 273 314 13,000 -1,250 Descending Atlanta Center
Fri 02:57:10 PM 34.0758 -83.8558 218° Southwest 273 314 12,000 -1,012 Descending Atlanta Center
Fri 02:57:33 PM 34.0500 -83.8833 221° Southwest 262 302 11,600 -1,084 Descending Atlanta TRACON
Fri 02:58:33 PM 34.0000 -83.9333 220° Southwest 253 291 10,500 -1,250 Descending Atlanta TRACON
Fri 02:59:33 PM 33.9333 -83.9500 192° South 268 308 9,100 -750 Descending Atlanta TRACON
Fri 03:00:33 PM 33.8500 -83.9500 180° South 263 303 9,000 -62 Descending Atlanta TRACON
Fri 03:01:10 PM 33.8108 -83.9539 185° South 260 299 9,000 -742 Level Atlanta Center
Fri 03:02:10 PM 33.7400 -83.9514 178° South 260 299 7,800 -1,300 Descending Atlanta Center
Fri 03:03:10 PM 33.6711 -83.9689 192° South 260 299 6,400 -565 Descending Atlanta Center
Fri 03:05:21 PM 33.6333 -84.0833 248° West 187 215 6,000 -346 Descending Atlanta TRACON
Fri 03:06:21 PM 33.6333 -84.1500 270° West 190 219 5,300 -950 Descending Atlanta TRACON
Fri 03:07:21 PM 33.6333 -84.2167 270° West 182 209 4,100 -1,050 Descending Atlanta TRACON
Fri 03:08:21 PM 33.6333 -84.2833 270° West 185 213 3,200 -900 Descending Atlanta TRACON
Fri 03:09:21 PM 33.6333 -84.3333 270° West 178 205 2,300 -850 Descending Atlanta TRACON
Fri 03:10:21 PM 33.6333 -84.3833 270° West 146 168 1,500 -800 Descending Atlanta TRACON
Fri 03:12:00 PM 33.6367 -84.4279 270° West  Level Estimated
Fri 03:19:00 PM 33.6367 -84.4279 64° Northeast  Level Estimated

Login

Don't have an account? Register now (free) for customized features, flight alerts, and more!